sensor_id;sensor_type;location;lat;lon;timestamp;P1;durP1;ratioP1;P2;durP2;ratioP2
11016;SDS011;54687;50.800;6.772;2023-03-15T00:00:19;10.47;;;5.67;;
11016;SDS011;54687;50.800;6.772;2023-03-15T00:02:46;11.80;;;5.90;;
11016;SDS011;54687;50.800;6.772;2023-03-15T00:05:13;9.97;;;6.27;;
11016;SDS011;54687;50.800;6.772;2023-03-15T00:07:41;9.87;;;6.63;;
11016;SDS011;54687;50.800;6.772;2023-03-15T00:10:08;10.90;;;6.67;;
11016;SDS011;54687;50.800;6.772;2023-03-15T00:12:35;13.43;;;6.30;;
11016;SDS011;54687;50.800;6.772;2023-03-15T00:15:02;10.47;;;6.47;;
11016;SDS011;54687;50.800;6.772;2023-03-15T00:17:28;8.50;;;6.33;;
11016;SDS011;54687;50.800;6.772;2023-03-15T00:19:58;10.43;;;6.60;;
11016;SDS011;54687;50.800;6.772;2023-03-15T00:22:25;10.40;;;6.73;;
11016;SDS011;54687;50.800;6.772;2023-03-15T00:24:53;10.57;;;6.33;;
11016;SDS011;54687;50.800;6.772;2023-03-15T00:27:19;15.77;;;7.00;;
11016;SDS011;54687;50.800;6.772;2023-03-15T00:29:46;12.10;;;6.70;;
11016;SDS011;54687;50.800;6.772;2023-03-15T00:32:12;13.13;;;6.50;;
11016;SDS011;54687;50.800;6.772;2023-03-15T00:34:39;11.60;;;6.57;;
11016;SDS011;54687;50.800;6.772;2023-03-15T00:37:06;12.63;;;7.10;;
11016;SDS011;54687;50.800;6.772;2023-03-15T00:39:32;10.20;;;6.67;;
11016;SDS011;54687;50.800;6.772;2023-03-15T00:42:03;11.10;;;6.93;;
11016;SDS011;54687;50.800;6.772;2023-03-15T00:44:30;10.20;;;7.00;;
11016;SDS011;54687;50.800;6.772;2023-03-15T00:46:56;12.93;;;7.53;;
11016;SDS011;54687;50.800;6.772;2023-03-15T00:49:23;11.43;;;7.10;;
11016;SDS011;54687;50.800;6.772;2023-03-15T00:51:49;10.83;;;7.40;;
11016;SDS011;54687;50.800;6.772;2023-03-15T00:54:16;11.10;;;7.13;;
11016;SDS011;54687;50.800;6.772;2023-03-15T00:56:42;10.00;;;6.60;;
11016;SDS011;54687;50.800;6.772;2023-03-15T00:59:10;10.13;;;7.20;;
11016;SDS011;54687;50.800;6.772;2023-03-15T01:01:36;10.77;;;7.10;;
11016;SDS011;54687;50.800;6.772;2023-03-15T01:04:08;11.63;;;6.40;;
11016;SDS011;54687;50.800;6.772;2023-03-15T01:06:36;8.37;;;6.20;;
11016;SDS011;54687;50.800;6.772;2023-03-15T01:09:02;10.80;;;6.70;;
11016;SDS011;54687;50.800;6.772;2023-03-15T01:11:29;9.33;;;6.50;;
11016;SDS011;54687;50.800;6.772;2023-03-15T01:13:57;10.00;;;6.73;;
11016;SDS011;54687;50.800;6.772;2023-03-15T01:16:26;11.90;;;7.37;;
11016;SDS011;54687;50.800;6.772;2023-03-15T01:18:53;8.63;;;6.33;;
11016;SDS011;54687;50.800;6.772;2023-03-15T01:21:20;9.93;;;6.43;;
11016;SDS011;54687;50.800;6.772;2023-03-15T01:23:47;10.73;;;7.07;;
11016;SDS011;54687;50.800;6.772;2023-03-15T01:26:14;11.93;;;7.50;;
11016;SDS011;54687;50.800;6.772;2023-03-15T01:28:42;9.97;;;6.67;;
11016;SDS011;54687;50.800;6.772;2023-03-15T01:31:10;8.87;;;6.33;;
11016;SDS011;54687;50.800;6.772;2023-03-15T01:33:43;8.07;;;5.50;;
11016;SDS011;54687;50.800;6.772;2023-03-15T01:36:10;8.53;;;6.33;;
11016;SDS011;54687;50.800;6.772;2023-03-15T01:38:37;10.20;;;6.40;;
11016;SDS011;54687;50.800;6.772;2023-03-15T01:41:04;7.13;;;5.30;;
11016;SDS011;54687;50.800;6.772;2023-03-15T01:43:31;11.00;;;6.00;;
11016;SDS011;54687;50.800;6.772;2023-03-15T01:46:01;10.67;;;5.17;;
11016;SDS011;54687;50.800;6.772;2023-03-15T01:48:33;8.63;;;4.53;;
11016;SDS011;54687;50.800;6.772;2023-03-15T01:51:06;9.53;;;5.23;;
11016;SDS011;54687;50.800;6.772;2023-03-15T01:53:37;9.80;;;4.60;;
11016;SDS011;54687;50.800;6.772;2023-03-15T01:56:07;8.48;;;4.15;;
11016;SDS011;54687;50.800;6.772;2023-03-15T01:58:35;5.63;;;3.87;;
11016;SDS011;54687;50.800;6.772;2023-03-15T02:01:03;8.82;;;4.60;;
11016;SDS011;54687;50.800;6.772;2023-03-15T02:03:32;7.38;;;5.00;;
11016;SDS011;54687;50.800;6.772;2023-03-15T02:06:03;6.40;;;4.73;;
11016;SDS011;54687;50.800;6.772;2023-03-15T02:08:35;8.27;;;4.90;;
11016;SDS011;54687;50.800;6.772;2023-03-15T02:11:04;9.37;;;4.63;;
11016;SDS011;54687;50.800;6.772;2023-03-15T02:13:31;12.93;;;5.35;;
11016;SDS011;54687;50.800;6.772;2023-03-15T02:15:59;7.63;;;5.18;;
11016;SDS011;54687;50.800;6.772;2023-03-15T02:18:31;8.65;;;5.32;;
11016;SDS011;54687;50.800;6.772;2023-03-15T02:21:01;8.90;;;5.22;;
11016;SDS011;54687;50.800;6.772;2023-03-15T02:23:35;8.90;;;5.23;;
11016;SDS011;54687;50.800;6.772;2023-03-15T02:26:05;11.85;;;5.50;;
11016;SDS011;54687;50.800;6.772;2023-03-15T02:28:41;9.10;;;4.60;;
11016;SDS011;54687;50.800;6.772;2023-03-15T02:31:08;11.93;;;5.43;;
11016;SDS011;54687;50.800;6.772;2023-03-15T02:33:35;8.30;;;4.40;;
11016;SDS011;54687;50.800;6.772;2023-03-15T02:36:09;7.93;;;3.90;;
11016;SDS011;54687;50.800;6.772;2023-03-15T02:38:39;5.40;;;3.47;;
11016;SDS011;54687;50.800;6.772;2023-03-15T02:41:06;9.70;;;4.17;;
11016;SDS011;54687;50.800;6.772;2023-03-15T02:43:32;5.87;;;3.60;;
11016;SDS011;54687;50.800;6.772;2023-03-15T02:46:01;7.13;;;3.77;;
11016;SDS011;54687;50.800;6.772;2023-03-15T02:48:29;7.87;;;3.40;;
11016;SDS011;54687;50.800;6.772;2023-03-15T02:50:59;5.33;;;3.03;;
11016;SDS011;54687;50.800;6.772;2023-03-15T02:53:27;5.27;;;3.20;;
11016;SDS011;54687;50.800;6.772;2023-03-15T02:55:54;2.80;;;2.33;;
11016;SDS011;54687;50.800;6.772;2023-03-15T02:58:21;4.80;;;2.83;;
11016;SDS011;54687;50.800;6.772;2023-03-15T03:00:48;4.00;;;2.40;;
11016;SDS011;54687;50.800;6.772;2023-03-15T03:03:18;6.03;;;2.93;;
11016;SDS011;54687;50.800;6.772;2023-03-15T03:05:44;3.57;;;2.43;;
11016;SDS011;54687;50.800;6.772;2023-03-15T03:08:11;4.03;;;2.40;;
11016;SDS011;54687;50.800;6.772;2023-03-15T03:10:40;4.97;;;2.40;;
11016;SDS011;54687;50.800;6.772;2023-03-15T03:13:07;3.27;;;2.37;;
11016;SDS011;54687;50.800;6.772;2023-03-15T03:15:34;3.20;;;2.40;;
11016;SDS011;54687;50.800;6.772;2023-03-15T03:18:00;2.30;;;2.10;;
11016;SDS011;54687;50.800;6.772;2023-03-15T03:20:28;2.40;;;2.20;;
11016;SDS011;54687;50.800;6.772;2023-03-15T03:22:55;3.03;;;2.27;;
11016;SDS011;54687;50.800;6.772;2023-03-15T03:25:21;3.13;;;2.20;;
11016;SDS011;54687;50.800;6.772;2023-03-15T03:27:50;2.53;;;2.20;;
11016;SDS011;54687;50.800;6.772;2023-03-15T03:30:21;2.33;;;2.13;;
11016;SDS011;54687;50.800;6.772;2023-03-15T03:32:48;2.57;;;2.37;;
11016;SDS011;54687;50.800;6.772;2023-03-15T03:35:14;2.77;;;2.53;;
11016;SDS011;54687;50.800;6.772;2023-03-15T03:37:42;4.57;;;2.80;;
11016;SDS011;54687;50.800;6.772;2023-03-15T03:40:10;3.20;;;2.90;;
11016;SDS011;54687;50.800;6.772;2023-03-15T03:42:37;3.40;;;3.07;;
11016;SDS011;54687;50.800;6.772;2023-03-15T03:45:04;4.10;;;2.77;;
11016;SDS011;54687;50.800;6.772;2023-03-15T03:47:31;3.77;;;3.03;;
11016;SDS011;54687;50.800;6.772;2023-03-15T03:49:58;3.30;;;3.00;;
11016;SDS011;54687;50.800;6.772;2023-03-15T03:52:24;4.07;;;2.77;;
11016;SDS011;54687;50.800;6.772;2023-03-15T03:54:52;3.13;;;2.83;;
11016;SDS011;54687;50.800;6.772;2023-03-15T03:57:19;4.20;;;3.20;;
11016;SDS011;54687;50.800;6.772;2023-03-15T03:59:45;5.27;;;3.10;;
11016;SDS011;54687;50.800;6.772;2023-03-15T04:02:12;3.67;;;3.27;;
11016;SDS011;54687;50.800;6.772;2023-03-15T04:04:38;3.50;;;3.20;;
11016;SDS011;54687;50.800;6.772;2023-03-15T04:07:06;3.20;;;2.83;;
11016;SDS011;54687;50.800;6.772;2023-03-15T04:09:32;3.50;;;3.00;;
11016;SDS011;54687;50.800;6.772;2023-03-15T04:12:02;4.07;;;3.07;;
11016;SDS011;54687;50.800;6.772;2023-03-15T04:14:30;4.93;;;3.20;;
11016;SDS011;54687;50.800;6.772;2023-03-15T04:16:56;5.20;;;3.20;;
11016;SDS011;54687;50.800;6.772;2023-03-15T04:19:23;4.07;;;2.87;;
11016;SDS011;54687;50.800;6.772;2023-03-15T04:21:50;4.60;;;3.10;;
11016;SDS011;54687;50.800;6.772;2023-03-15T04:24:17;4.40;;;2.80;;
11016;SDS011;54687;50.800;6.772;2023-03-15T04:26:43;3.77;;;2.73;;
11016;SDS011;54687;50.800;6.772;2023-03-15T04:29:11;3.10;;;2.50;;
11016;SDS011;54687;50.800;6.772;2023-03-15T04:31:39;3.53;;;2.40;;
11016;SDS011;54687;50.800;6.772;2023-03-15T04:34:07;2.93;;;2.53;;
11016;SDS011;54687;50.800;6.772;2023-03-15T04:36:34;2.40;;;2.20;;
11016;SDS011;54687;50.800;6.772;2023-03-15T04:39:00;2.83;;;2.40;;
11016;SDS011;54687;50.800;6.772;2023-03-15T04:41:31;3.53;;;2.57;;
11016;SDS011;54687;50.800;6.772;2023-03-15T04:44:00;2.53;;;2.30;;
11016;SDS011;54687;50.800;6.772;2023-03-15T04:46:29;2.20;;;2.00;;
11016;SDS011;54687;50.800;6.772;2023-03-15T04:48:55;2.47;;;2.07;;
11016;SDS011;54687;50.800;6.772;2023-03-15T04:51:22;2.60;;;2.23;;
11016;SDS011;54687;50.800;6.772;2023-03-15T04:53:49;1.53;;;1.43;;
11016;SDS011;54687;50.800;6.772;2023-03-15T04:56:15;1.93;;;1.83;;
11016;SDS011;54687;50.800;6.772;2023-03-15T04:58:42;1.90;;;1.80;;
11016;SDS011;54687;50.800;6.772;2023-03-15T05:01:09;1.70;;;1.60;;
11016;SDS011;54687;50.800;6.772;2023-03-15T05:03:37;1.47;;;1.37;;
11016;SDS011;54687;50.800;6.772;2023-03-15T05:06:04;1.50;;;1.40;;
11016;SDS011;54687;50.800;6.772;2023-03-15T05:08:32;1.53;;;1.17;;
11016;SDS011;54687;50.800;6.772;2023-03-15T05:10:59;1.50;;;1.40;;
11016;SDS011;54687;50.800;6.772;2023-03-15T05:13:25;1.30;;;1.30;;
11016;SDS011;54687;50.800;6.772;2023-03-15T05:15:52;1.40;;;1.30;;
11016;SDS011;54687;50.800;6.772;2023-03-15T05:18:19;1.80;;;1.70;;
11016;SDS011;54687;50.800;6.772;2023-03-15T05:20:47;2.37;;;1.90;;
11016;SDS011;54687;50.800;6.772;2023-03-15T05:23:13;2.40;;;2.20;;
11016;SDS011;54687;50.800;6.772;2023-03-15T05:25:41;2.30;;;2.10;;
11016;SDS011;54687;50.800;6.772;2023-03-15T05:28:07;2.13;;;1.93;;
11016;SDS011;54687;50.800;6.772;2023-03-15T05:30:34;2.40;;;2.30;;
11016;SDS011;54687;50.800;6.772;2023-03-15T05:33:00;2.73;;;2.53;;
11016;SDS011;54687;50.800;6.772;2023-03-15T05:35:29;3.00;;;2.80;;
11016;SDS011;54687;50.800;6.772;2023-03-15T05:37:57;2.50;;;2.40;;
11016;SDS011;54687;50.800;6.772;2023-03-15T05:40:23;2.80;;;2.60;;
11016;SDS011;54687;50.800;6.772;2023-03-15T05:42:50;2.87;;;2.67;;
11016;SDS011;54687;50.800;6.772;2023-03-15T05:45:16;3.00;;;2.80;;
11016;SDS011;54687;50.800;6.772;2023-03-15T05:47:43;3.33;;;3.07;;
11016;SDS011;54687;50.800;6.772;2023-03-15T05:50:10;3.23;;;2.93;;
11016;SDS011;54687;50.800;6.772;2023-03-15T05:52:36;4.10;;;3.80;;
11016;SDS011;54687;50.800;6.772;2023-03-15T05:55:05;4.27;;;3.87;;
11016;SDS011;54687;50.800;6.772;2023-03-15T05:57:32;3.93;;;3.63;;
11016;SDS011;54687;50.800;6.772;2023-03-15T05:59:58;4.40;;;4.10;;
11016;SDS011;54687;50.800;6.772;2023-03-15T06:02:25;5.00;;;4.50;;
11016;SDS011;54687;50.800;6.772;2023-03-15T06:04:51;5.50;;;5.10;;
11016;SDS011;54687;50.800;6.772;2023-03-15T06:07:18;5.77;;;5.23;;
11016;SDS011;54687;50.800;6.772;2023-03-15T06:09:45;5.80;;;5.40;;
11016;SDS011;54687;50.800;6.772;2023-03-15T06:12:13;6.00;;;5.50;;
11016;SDS011;54687;50.800;6.772;2023-03-15T06:14:40;5.93;;;5.43;;
11016;SDS011;54687;50.800;6.772;2023-03-15T06:17:06;6.50;;;6.00;;
11016;SDS011;54687;50.800;6.772;2023-03-15T06:19:33;6.03;;;5.53;;
11016;SDS011;54687;50.800;6.772;2023-03-15T06:21:59;6.20;;;5.70;;
11016;SDS011;54687;50.800;6.772;2023-03-15T06:24:26;7.07;;;6.47;;
11016;SDS011;54687;50.800;6.772;2023-03-15T06:26:53;7.50;;;6.80;;
11016;SDS011;54687;50.800;6.772;2023-03-15T06:29:21;7.50;;;6.83;;
11016;SDS011;54687;50.800;6.772;2023-03-15T06:31:48;7.60;;;6.90;;
11016;SDS011;54687;50.800;6.772;2023-03-15T06:34:15;7.73;;;7.03;;
11016;SDS011;54687;50.800;6.772;2023-03-15T06:36:42;7.70;;;7.10;;
11016;SDS011;54687;50.800;6.772;2023-03-15T06:39:09;7.43;;;6.73;;
11016;SDS011;54687;50.800;6.772;2023-03-15T06:41:36;7.47;;;6.87;;
11016;SDS011;54687;50.800;6.772;2023-03-15T06:44:03;7.50;;;6.82;;
11016;SDS011;54687;50.800;6.772;2023-03-15T06:46:31;8.13;;;7.33;;
11016;SDS011;54687;50.800;6.772;2023-03-15T06:48:57;7.70;;;7.00;;
11016;SDS011;54687;50.800;6.772;2023-03-15T06:51:24;7.25;;;6.55;;
11016;SDS011;54687;50.800;6.772;2023-03-15T06:53:51;7.90;;;7.20;;
11016;SDS011;54687;50.800;6.772;2023-03-15T06:56:17;7.55;;;6.85;;
11016;SDS011;54687;50.800;6.772;2023-03-15T06:58:44;7.47;;;6.55;;
11016;SDS011;54687;50.800;6.772;2023-03-15T07:01:11;10.00;;;9.10;;
11016;SDS011;54687;50.800;6.772;2023-03-15T07:03:39;7.90;;;7.20;;
11016;SDS011;54687;50.800;6.772;2023-03-15T07:06:06;8.30;;;7.47;;
11016;SDS011;54687;50.800;6.772;2023-03-15T07:08:33;7.70;;;7.07;;
11016;SDS011;54687;50.800;6.772;2023-03-15T07:10:59;9.85;;;7.15;;
11016;SDS011;54687;50.800;6.772;2023-03-15T07:13:28;11.17;;;8.33;;
11016;SDS011;54687;50.800;6.772;2023-03-15T07:15:55;10.63;;;9.53;;
11016;SDS011;54687;50.800;6.772;2023-03-15T07:18:21;11.50;;;9.48;;
11016;SDS011;54687;50.800;6.772;2023-03-15T07:20:56;11.05;;;9.85;;
11016;SDS011;54687;50.800;6.772;2023-03-15T07:23:23;9.93;;;8.85;;
11016;SDS011;54687;50.800;6.772;2023-03-15T07:25:50;10.38;;;9.40;;
11016;SDS011;54687;50.800;6.772;2023-03-15T07:28:18;9.75;;;8.70;;
11016;SDS011;54687;50.800;6.772;2023-03-15T07:30:50;9.68;;;8.27;;
11016;SDS011;54687;50.800;6.772;2023-03-15T07:33:18;8.63;;;7.60;;
11016;SDS011;54687;50.800;6.772;2023-03-15T07:35:46;8.80;;;8.00;;
11016;SDS011;54687;50.800;6.772;2023-03-15T07:38:14;8.85;;;7.78;;
11016;SDS011;54687;50.800;6.772;2023-03-15T07:40:40;7.75;;;6.95;;
11016;SDS011;54687;50.800;6.772;2023-03-15T07:43:07;7.68;;;7.07;;
11016;SDS011;54687;50.800;6.772;2023-03-15T07:45:34;7.63;;;6.93;;
11016;SDS011;54687;50.800;6.772;2023-03-15T07:48:00;7.60;;;6.97;;
11016;SDS011;54687;50.800;6.772;2023-03-15T07:50:27;7.45;;;6.75;;
11016;SDS011;54687;50.800;6.772;2023-03-15T07:52:54;7.13;;;6.53;;
11016;SDS011;54687;50.800;6.772;2023-03-15T07:55:22;7.13;;;6.45;;
11016;SDS011;54687;50.800;6.772;2023-03-15T07:57:49;7.90;;;7.13;;
11016;SDS011;54687;50.800;6.772;2023-03-15T08:00:16;7.55;;;6.78;;
11016;SDS011;54687;50.800;6.772;2023-03-15T08:02:43;6.50;;;5.90;;
11016;SDS011;54687;50.800;6.772;2023-03-15T08:05:10;7.57;;;6.45;;
11016;SDS011;54687;50.800;6.772;2023-03-15T08:07:36;6.18;;;5.68;;
11016;SDS011;54687;50.800;6.772;2023-03-15T08:10:03;6.97;;;6.38;;
11016;SDS011;54687;50.800;6.772;2023-03-15T08:12:31;6.40;;;5.90;;
11016;SDS011;54687;50.800;6.772;2023-03-15T08:14:59;6.72;;;6.10;;
11016;SDS011;54687;50.800;6.772;2023-03-15T08:17:25;6.88;;;6.13;;
11016;SDS011;54687;50.800;6.772;2023-03-15T08:19:52;5.90;;;5.40;;
11016;SDS011;54687;50.800;6.772;2023-03-15T08:22:19;6.70;;;6.00;;
11016;SDS011;54687;50.800;6.772;2023-03-15T08:24:45;6.18;;;5.68;;
11016;SDS011;54687;50.800;6.772;2023-03-15T08:27:12;6.75;;;5.72;;
11016;SDS011;54687;50.800;6.772;2023-03-15T08:29:40;6.55;;;5.95;;
11016;SDS011;54687;50.800;6.772;2023-03-15T08:32:07;6.10;;;5.45;;
11016;SDS011;54687;50.800;6.772;2023-03-15T08:34:34;5.35;;;4.30;;
11016;SDS011;54687;50.800;6.772;2023-03-15T08:37:00;6.53;;;4.80;;
11016;SDS011;54687;50.800;6.772;2023-03-15T08:39:27;5.28;;;4.70;;
11016;SDS011;54687;50.800;6.772;2023-03-15T08:41:54;6.20;;;5.68;;
11016;SDS011;54687;50.800;6.772;2023-03-15T08:44:20;5.82;;;5.32;;
11016;SDS011;54687;50.800;6.772;2023-03-15T08:46:48;6.32;;;5.72;;
11016;SDS011;54687;50.800;6.772;2023-03-15T08:49:15;7.10;;;5.88;;
11016;SDS011;54687;50.800;6.772;2023-03-15T08:51:41;6.38;;;5.78;;
11016;SDS011;54687;50.800;6.772;2023-03-15T08:54:08;6.50;;;5.95;;
11016;SDS011;54687;50.800;6.772;2023-03-15T08:56:34;5.30;;;4.80;;
11016;SDS011;54687;50.800;6.772;2023-03-15T08:59:01;6.32;;;5.75;;
11016;SDS011;54687;50.800;6.772;2023-03-15T09:01:27;5.82;;;5.32;;
11016;SDS011;54687;50.800;6.772;2023-03-15T09:03:56;6.25;;;5.65;;
11016;SDS011;54687;50.800;6.772;2023-03-15T09:06:23;8.25;;;7.40;;
11016;SDS011;54687;50.800;6.772;2023-03-15T09:08:50;7.75;;;6.78;;
11016;SDS011;54687;50.800;6.772;2023-03-15T09:11:17;7.22;;;6.32;;
11016;SDS011;54687;50.800;6.772;2023-03-15T09:13:44;7.57;;;6.70;;
11016;SDS011;54687;50.800;6.772;2023-03-15T09:16:11;7.82;;;6.10;;
11016;SDS011;54687;50.800;6.772;2023-03-15T09:18:37;7.32;;;6.22;;
11016;SDS011;54687;50.800;6.772;2023-03-15T09:21:06;6.68;;;5.60;;
11016;SDS011;54687;50.800;6.772;2023-03-15T09:23:32;6.28;;;4.63;;
11016;SDS011;54687;50.800;6.772;2023-03-15T09:25:59;5.88;;;5.13;;
11016;SDS011;54687;50.800;6.772;2023-03-15T09:28:26;7.82;;;5.45;;
11016;SDS011;54687;50.800;6.772;2023-03-15T09:30:53;6.43;;;5.75;;
11016;SDS011;54687;50.800;6.772;2023-03-15T09:33:19;7.72;;;5.75;;
11016;SDS011;54687;50.800;6.772;2023-03-15T09:35:46;6.97;;;5.65;;
11016;SDS011;54687;50.800;6.772;2023-03-15T09:38:16;5.40;;;4.35;;
11016;SDS011;54687;50.800;6.772;2023-03-15T09:40:43;5.93;;;4.68;;
11016;SDS011;54687;50.800;6.772;2023-03-15T09:43:18;5.50;;;4.70;;
11016;SDS011;54687;50.800;6.772;2023-03-15T09:45:59;6.85;;;4.82;;
11016;SDS011;54687;50.800;6.772;2023-03-15T09:48:36;6.57;;;4.50;;
11016;SDS011;54687;50.800;6.772;2023-03-15T09:51:12;7.53;;;4.22;;
11016;SDS011;54687;50.800;6.772;2023-03-15T09:53:46;6.90;;;4.40;;
11016;SDS011;54687;50.800;6.772;2023-03-15T09:56:20;4.25;;;3.50;;
11016;SDS011;54687;50.800;6.772;2023-03-15T09:58:53;4.25;;;3.75;;
11016;SDS011;54687;50.800;6.772;2023-03-15T10:01:24;7.38;;;3.65;;
11016;SDS011;54687;50.800;6.772;2023-03-15T10:03:56;7.90;;;3.78;;
11016;SDS011;54687;50.800;6.772;2023-03-15T10:06:23;6.55;;;3.85;;
11016;SDS011;54687;50.800;6.772;2023-03-15T10:08:56;5.45;;;4.20;;
11016;SDS011;54687;50.800;6.772;2023-03-15T10:11:26;6.93;;;4.35;;
11016;SDS011;54687;50.800;6.772;2023-03-15T10:14:03;5.80;;;4.20;;
11016;SDS011;54687;50.800;6.772;2023-03-15T10:16:41;8.85;;;5.10;;
11016;SDS011;54687;50.800;6.772;2023-03-15T10:19:12;7.55;;;6.60;;
11016;SDS011;54687;50.800;6.772;2023-03-15T10:21:46;6.18;;;4.63;;
11016;SDS011;54687;50.800;6.772;2023-03-15T10:24:21;8.75;;;5.40;;
11016;SDS011;54687;50.800;6.772;2023-03-15T10:26:53;6.95;;;6.20;;
11016;SDS011;54687;50.800;6.772;2023-03-15T10:29:25;7.22;;;4.82;;
11016;SDS011;54687;50.800;6.772;2023-03-15T10:31:53;6.38;;;4.75;;
11016;SDS011;54687;50.800;6.772;2023-03-15T10:34:20;5.88;;;4.15;;
11016;SDS011;54687;50.800;6.772;2023-03-15T10:36:49;7.68;;;5.90;;
11016;SDS011;54687;50.800;6.772;2023-03-15T10:39:20;6.05;;;4.80;;
11016;SDS011;54687;50.800;6.772;2023-03-15T10:41:47;14.95;;;10.52;;
11016;SDS011;54687;50.800;6.772;2023-03-15T10:44:16;6.20;;;4.35;;
11016;SDS011;54687;50.800;6.772;2023-03-15T10:49:31;5.88;;;4.22;;
11016;SDS011;54687;50.800;6.772;2023-03-15T10:52:00;8.10;;;4.72;;
11016;SDS011;54687;50.800;6.772;2023-03-15T10:54:29;6.13;;;4.78;;
11016;SDS011;54687;50.800;6.772;2023-03-15T10:56:58;4.68;;;3.90;;
11016;SDS011;54687;50.800;6.772;2023-03-15T10:59:28;6.45;;;4.13;;
11016;SDS011;54687;50.800;6.772;2023-03-15T11:02:06;6.43;;;3.88;;
11016;SDS011;54687;50.800;6.772;2023-03-15T11:04:46;5.57;;;3.40;;
11016;SDS011;54687;50.800;6.772;2023-03-15T11:07:15;6.13;;;3.65;;
11016;SDS011;54687;50.800;6.772;2023-03-15T11:09:44;6.70;;;3.55;;
11016;SDS011;54687;50.800;6.772;2023-03-15T11:12:21;6.03;;;3.30;;
11016;SDS011;54687;50.800;6.772;2023-03-15T11:14:50;6.72;;;3.38;;
11016;SDS011;54687;50.800;6.772;2023-03-15T11:17:18;7.40;;;3.70;;
11016;SDS011;54687;50.800;6.772;2023-03-15T11:19:50;5.82;;;3.25;;
11016;SDS011;54687;50.800;6.772;2023-03-15T11:22:20;5.45;;;3.33;;
11016;SDS011;54687;50.800;6.772;2023-03-15T11:24:48;3.78;;;3.00;;
11016;SDS011;54687;50.800;6.772;2023-03-15T11:27:15;4.20;;;2.70;;
11016;SDS011;54687;50.800;6.772;2023-03-15T11:29:47;5.15;;;2.97;;
11016;SDS011;54687;50.800;6.772;2023-03-15T11:32:17;5.03;;;3.33;;
11016;SDS011;54687;50.800;6.772;2023-03-15T11:34:47;7.00;;;2.83;;
11016;SDS011;54687;50.800;6.772;2023-03-15T11:37:21;5.30;;;2.85;;
11016;SDS011;54687;50.800;6.772;2023-03-15T11:39:54;6.40;;;2.10;;
11016;SDS011;54687;50.800;6.772;2023-03-15T11:42:27;4.00;;;2.25;;
11016;SDS011;54687;50.800;6.772;2023-03-15T11:44:59;5.72;;;2.60;;
11016;SDS011;54687;50.800;6.772;2023-03-15T11:47:32;3.97;;;2.47;;
11016;SDS011;54687;50.800;6.772;2023-03-15T11:50:03;4.85;;;3.03;;
11016;SDS011;54687;50.800;6.772;2023-03-15T11:52:30;7.18;;;2.67;;
11016;SDS011;54687;50.800;6.772;2023-03-15T11:54:59;5.68;;;3.00;;
11016;SDS011;54687;50.800;6.772;2023-03-15T11:57:35;3.97;;;1.73;;
11016;SDS011;54687;50.800;6.772;2023-03-15T12:00:17;3.72;;;2.42;;
11016;SDS011;54687;50.800;6.772;2023-03-15T12:03:24;4.75;;;2.65;;
11016;SDS011;54687;50.800;6.772;2023-03-15T12:05:59;4.95;;;2.10;;
11016;SDS011;54687;50.800;6.772;2023-03-15T12:08:40;4.55;;;2.20;;
11016;SDS011;54687;50.800;6.772;2023-03-15T12:11:10;4.20;;;2.50;;
11016;SDS011;54687;50.800;6.772;2023-03-15T12:13:49;3.45;;;2.00;;
11016;SDS011;54687;50.800;6.772;2023-03-15T12:16:19;5.15;;;1.98;;
11016;SDS011;54687;50.800;6.772;2023-03-15T12:18:46;4.82;;;2.08;;
11016;SDS011;54687;50.800;6.772;2023-03-15T12:21:18;3.97;;;2.75;;
11016;SDS011;54687;50.800;6.772;2023-03-15T12:23:55;4.10;;;2.33;;
11016;SDS011;54687;50.800;6.772;2023-03-15T12:26:37;4.05;;;2.05;;
11016;SDS011;54687;50.800;6.772;2023-03-15T12:29:16;3.85;;;1.83;;
11016;SDS011;54687;50.800;6.772;2023-03-15T12:31:54;7.03;;;2.30;;
11016;SDS011;54687;50.800;6.772;2023-03-15T12:34:25;3.92;;;2.10;;
11016;SDS011;54687;50.800;6.772;2023-03-15T12:36:57;3.83;;;2.00;;
11016;SDS011;54687;50.800;6.772;2023-03-15T12:39:36;5.80;;;2.70;;
11016;SDS011;54687;50.800;6.772;2023-03-15T12:42:13;3.35;;;1.90;;
11016;SDS011;54687;50.800;6.772;2023-03-15T12:45:00;3.67;;;2.00;;
11016;SDS011;54687;50.800;6.772;2023-03-15T12:48:16;3.00;;;1.60;;
11016;SDS011;54687;50.800;6.772;2023-03-15T12:50:50;4.05;;;2.00;;
11016;SDS011;54687;50.800;6.772;2023-03-15T12:53:20;3.67;;;1.88;;
11016;SDS011;54687;50.800;6.772;2023-03-15T12:55:53;3.25;;;1.75;;
11016;SDS011;54687;50.800;6.772;2023-03-15T12:58:25;3.20;;;1.90;;
11016;SDS011;54687;50.800;6.772;2023-03-15T13:00:56;3.65;;;2.15;;
11016;SDS011;54687;50.800;6.772;2023-03-15T13:03:27;3.38;;;1.92;;
11016;SDS011;54687;50.800;6.772;2023-03-15T13:05:56;3.25;;;1.90;;
11016;SDS011;54687;50.800;6.772;2023-03-15T13:08:29;3.05;;;1.77;;
11016;SDS011;54687;50.800;6.772;2023-03-15T13:11:09;5.47;;;3.70;;
11016;SDS011;54687;50.800;6.772;2023-03-15T13:16:40;3.70;;;1.77;;
11016;SDS011;54687;50.800;6.772;2023-03-15T13:19:15;7.10;;;2.47;;
11016;SDS011;54687;50.800;6.772;2023-03-15T13:21:59;4.47;;;2.08;;
11016;SDS011;54687;50.800;6.772;2023-03-15T13:24:34;4.45;;;1.90;;
11016;SDS011;54687;50.800;6.772;2023-03-15T13:27:10;2.83;;;1.70;;
11016;SDS011;54687;50.800;6.772;2023-03-15T13:29:46;1.85;;;1.73;;
11016;SDS011;54687;50.800;6.772;2023-03-15T13:32:13;4.75;;;2.17;;
11016;SDS011;54687;50.800;6.772;2023-03-15T13:34:43;1.50;;;1.38;;
11016;SDS011;54687;50.800;6.772;2023-03-15T13:37:12;3.13;;;1.60;;
11016;SDS011;54687;50.800;6.772;2023-03-15T13:39:52;2.22;;;1.38;;
11016;SDS011;54687;50.800;6.772;2023-03-15T13:42:22;3.90;;;1.65;;
11016;SDS011;54687;50.800;6.772;2023-03-15T13:47:44;4.13;;;1.95;;
11016;SDS011;54687;50.800;6.772;2023-03-15T13:50:13;6.72;;;1.95;;
11016;SDS011;54687;50.800;6.772;2023-03-15T13:52:41;4.15;;;2.13;;
11016;SDS011;54687;50.800;6.772;2023-03-15T13:55:11;4.00;;;1.70;;
11016;SDS011;54687;50.800;6.772;2023-03-15T13:57:39;3.40;;;1.60;;
11016;SDS011;54687;50.800;6.772;2023-03-15T14:00:07;3.42;;;1.70;;
11016;SDS011;54687;50.800;6.772;2023-03-15T14:02:44;2.40;;;1.33;;
11016;SDS011;54687;50.800;6.772;2023-03-15T14:05:14;4.43;;;1.95;;
11016;SDS011;54687;50.800;6.772;2023-03-15T14:07:43;3.40;;;1.45;;
11016;SDS011;54687;50.800;6.772;2023-03-15T14:10:21;3.63;;;2.08;;
11016;SDS011;54687;50.800;6.772;2023-03-15T14:12:53;3.28;;;1.80;;
11016;SDS011;54687;50.800;6.772;2023-03-15T14:15:22;3.15;;;1.70;;
11016;SDS011;54687;50.800;6.772;2023-03-15T14:17:59;3.10;;;2.08;;
11016;SDS011;54687;50.800;6.772;2023-03-15T14:20:28;3.38;;;1.70;;
11016;SDS011;54687;50.800;6.772;2023-03-15T14:23:01;2.40;;;2.00;;
11016;SDS011;54687;50.800;6.772;2023-03-15T14:25:32;4.13;;;1.73;;
11016;SDS011;54687;50.800;6.772;2023-03-15T14:28:00;2.22;;;1.52;;
11016;SDS011;54687;50.800;6.772;2023-03-15T14:30:27;4.15;;;1.83;;
11016;SDS011;54687;50.800;6.772;2023-03-15T14:32:59;3.38;;;2.50;;
11016;SDS011;54687;50.800;6.772;2023-03-15T14:35:30;3.72;;;2.40;;
11016;SDS011;54687;50.800;6.772;2023-03-15T14:38:07;3.60;;;2.10;;
11016;SDS011;54687;50.800;6.772;2023-03-15T14:40:40;5.35;;;2.80;;
11016;SDS011;54687;50.800;6.772;2023-03-15T14:43:08;5.75;;;4.13;;
11016;SDS011;54687;50.800;6.772;2023-03-15T14:45:36;4.68;;;2.90;;
11016;SDS011;54687;50.800;6.772;2023-03-15T14:48:06;2.97;;;2.60;;
11016;SDS011;54687;50.800;6.772;2023-03-15T14:50:39;3.83;;;1.88;;
11016;SDS011;54687;50.800;6.772;2023-03-15T14:53:08;2.78;;;2.25;;
11016;SDS011;54687;50.800;6.772;2023-03-15T14:55:39;4.45;;;2.40;;
11016;SDS011;54687;50.800;6.772;2023-03-15T14:58:08;4.82;;;2.13;;
11016;SDS011;54687;50.800;6.772;2023-03-15T15:00:37;3.75;;;2.20;;
11016;SDS011;54687;50.800;6.772;2023-03-15T15:03:06;7.03;;;5.15;;
11016;SDS011;54687;50.800;6.772;2023-03-15T15:05:42;9.35;;;6.32;;